createdAt,value
2022-12-12T00:00:35.236Z,8.82
2022-12-12T00:03:02.211Z,11.85
2022-12-12T00:05:29.022Z,12.85
2022-12-12T00:07:55.799Z,9.77
2022-12-12T00:10:22.632Z,9.55
2022-12-12T00:12:49.370Z,10.30
2022-12-12T00:15:16.192Z,11.52
2022-12-12T00:17:42.928Z,9.48
2022-12-12T00:20:09.907Z,8.65
2022-12-12T00:22:36.637Z,8.50
2022-12-12T00:25:03.804Z,8.20
2022-12-12T00:27:32.490Z,9.00
2022-12-12T00:29:59.328Z,9.20
2022-12-12T00:32:26.319Z,11.93
2022-12-12T00:34:53.137Z,8.88
2022-12-12T00:37:20.254Z,5.90
2022-12-12T00:39:47.084Z,8.25
2022-12-12T00:42:13.916Z,11.77
2022-12-12T00:44:40.750Z,7.82
2022-12-12T00:47:07.570Z,7.47
2022-12-12T00:49:34.344Z,8.52
2022-12-12T00:52:01.288Z,6.10
2022-12-12T00:54:28.033Z,7.68
2022-12-12T00:56:54.813Z,7.70
2022-12-12T00:59:21.688Z,8.73
2022-12-12T01:01:48.474Z,7.53
2022-12-12T01:04:15.346Z,11.65
2022-12-12T01:06:42.046Z,12.52
2022-12-12T01:09:08.771Z,10.25
2022-12-12T01:11:35.541Z,7.60
2022-12-12T01:14:02.343Z,12.73
2022-12-12T01:16:29.487Z,12.43
2022-12-12T01:18:56.820Z,14.13
2022-12-12T01:21:23.776Z,12.38
2022-12-12T01:23:50.557Z,14.30
2022-12-12T01:26:19.715Z,17.90
2022-12-12T01:28:46.603Z,12.10
2022-12-12T01:31:13.791Z,12.07
2022-12-12T01:33:41.186Z,10.15
2022-12-12T01:36:07.973Z,9.80
2022-12-12T01:38:34.688Z,11.48
2022-12-12T01:41:01.723Z,12.55
2022-12-12T01:43:28.682Z,11.25
2022-12-12T01:45:58.396Z,11.70
2022-12-12T01:48:52.737Z,8.50
2022-12-12T01:51:23.977Z,11.75
2022-12-12T01:53:52.216Z,12.23
2022-12-12T01:56:19.817Z,15.02
2022-12-12T01:58:47.684Z,12.88
2022-12-12T02:01:14.458Z,13.40
2022-12-12T02:03:41.208Z,17.77
2022-12-12T02:06:10.762Z,12.88
2022-12-12T02:08:37.539Z,10.48
2022-12-12T02:11:04.396Z,15.77
2022-12-12T02:13:31.684Z,13.15
2022-12-12T02:16:14.801Z,12.93
2022-12-12T02:18:50.544Z,17.30
2022-12-12T02:21:32.868Z,11.07
2022-12-12T02:24:11.550Z,14.57
2022-12-12T02:27:08.598Z,12.25
2022-12-12T02:29:49.488Z,11.82
2022-12-12T02:32:24.905Z,14.63
2022-12-12T02:35:30.417Z,15.13
2022-12-12T02:38:13.401Z,14.65
2022-12-12T02:40:58.155Z,14.30
2022-12-12T02:44:09.323Z,15.70
2022-12-12T02:46:41.823Z,11.98
2022-12-12T02:49:25.490Z,13.48
2022-12-12T02:51:52.245Z,15.07
2022-12-12T02:54:21.685Z,13.75
2022-12-12T02:56:58.670Z,14.43
2022-12-12T02:59:39.852Z,15.90
2022-12-12T03:02:16.546Z,15.95
2022-12-12T03:05:23.753Z,14.48
2022-12-12T03:08:28.233Z,14.10
2022-12-12T03:11:04.690Z,13.93
2022-12-12T03:13:40.769Z,13.25
2022-12-12T03:16:29.673Z,13.77
2022-12-12T03:19:24.506Z,14.95
2022-12-12T03:24:36.347Z,15.07
2022-12-12T03:27:10.154Z,11.95
2022-12-12T03:29:40.897Z,13.35
2022-12-12T03:32:15.441Z,13.07
2022-12-12T03:34:51.439Z,12.25
2022-12-12T03:37:24.498Z,11.20
2022-12-12T03:40:02.466Z,14.38
2022-12-12T03:42:34.498Z,11.88
2022-12-12T03:45:18.913Z,14.32
2022-12-12T03:50:19.309Z,17.17
2022-12-12T03:53:26.938Z,17.00
2022-12-12T03:55:58.780Z,14.95
2022-12-12T03:58:47.328Z,15.63
2022-12-12T04:01:14.209Z,11.77
2022-12-12T04:04:00.390Z,17.58
2022-12-12T04:06:38.356Z,14.55
2022-12-12T04:09:29.515Z,23.40
2022-12-12T04:12:33.077Z,17.55
2022-12-12T04:15:11.863Z,16.52
2022-12-12T04:17:55.579Z,18.38
2022-12-12T04:21:06.113Z,18.80
2022-12-12T04:23:50.410Z,21.17
2022-12-12T04:26:38.662Z,15.05
2022-12-12T04:29:39.556Z,16.65
2022-12-12T04:32:08.840Z,16.60
2022-12-12T04:34:58.542Z,15.43
2022-12-12T04:37:30.767Z,20.58
2022-12-12T04:39:59.960Z,17.65
2022-12-12T04:42:28.815Z,19.40
2022-12-12T04:44:58.127Z,17.13
2022-12-12T04:47:24.888Z,17.50
2022-12-12T04:49:51.743Z,18.48
2022-12-12T04:52:18.504Z,20.58
2022-12-12T04:54:49.900Z,19.92
2022-12-12T04:57:23.653Z,21.08
2022-12-12T04:59:50.456Z,17.58
2022-12-12T05:02:23.449Z,16.73
2022-12-12T05:04:55.748Z,17.65
2022-12-12T05:07:39.261Z,17.45
2022-12-12T05:10:17.159Z,17.25
2022-12-12T05:12:48.384Z,19.02
2022-12-12T05:15:16.165Z,21.92
2022-12-12T05:17:47.420Z,18.45
2022-12-12T05:20:14.983Z,18.33
2022-12-12T05:22:41.793Z,19.75
2022-12-12T05:25:08.900Z,20.33
2022-12-12T05:27:35.637Z,15.25
2022-12-12T05:30:02.464Z,19.70
2022-12-12T05:32:29.207Z,21.50
2022-12-12T05:34:55.911Z,16.48
2022-12-12T05:37:22.629Z,16.73
2022-12-12T05:39:49.336Z,17.58
2022-12-12T05:42:16.066Z,15.63
2022-12-12T05:44:43.005Z,18.52
2022-12-12T05:47:10.021Z,15.45
2022-12-12T05:49:36.806Z,17.30
2022-12-12T05:52:03.643Z,18.65
2022-12-12T05:54:30.588Z,16.58
2022-12-12T05:56:57.426Z,24.85
2022-12-12T05:59:24.174Z,18.58
2022-12-12T06:01:50.922Z,17.55
2022-12-12T06:04:17.763Z,23.58
2022-12-12T06:06:44.665Z,19.33
2022-12-12T06:09:11.369Z,20.90
2022-12-12T06:11:38.110Z,21.23
2022-12-12T06:14:04.954Z,22.63
2022-12-12T06:16:31.705Z,17.55
2022-12-12T06:18:58.420Z,20.50
2022-12-12T06:21:25.178Z,20.02
2022-12-12T06:23:51.897Z,21.15
2022-12-12T06:26:18.865Z,23.42
2022-12-12T06:28:45.817Z,21.23
2022-12-12T06:31:12.804Z,25.30
2022-12-12T06:33:40.526Z,31.60
2022-12-12T06:36:12.262Z,27.30
2022-12-12T06:38:39.199Z,25.42
2022-12-12T06:41:07.476Z,22.75
2022-12-12T06:43:34.322Z,24.60
2022-12-12T06:46:05.428Z,23.65
2022-12-12T06:48:32.384Z,26.17
2022-12-12T06:50:59.358Z,24.40
2022-12-12T06:53:26.362Z,27.23
2022-12-12T06:55:53.108Z,20.05
2022-12-12T06:58:20.258Z,21.48
2022-12-12T07:00:51.555Z,20.55
2022-12-12T07:03:18.313Z,22.60
2022-12-12T07:05:48.572Z,20.67
2022-12-12T07:08:15.784Z,17.85
2022-12-12T07:10:42.746Z,16.77
2022-12-12T07:13:09.857Z,19.42
2022-12-12T07:15:44.710Z,21.45
2022-12-12T07:18:11.751Z,21.58
2022-12-12T07:20:42.454Z,19.88
2022-12-12T07:23:09.476Z,19.40
2022-12-12T07:25:40.664Z,17.73
2022-12-12T07:28:08.147Z,16.10
2022-12-12T07:30:34.916Z,16.42
2022-12-12T07:33:01.677Z,15.98
2022-12-12T07:35:28.526Z,18.02
2022-12-12T07:37:56.652Z,16.92
2022-12-12T07:40:23.853Z,15.27
2022-12-12T07:42:50.693Z,17.35
2022-12-12T07:45:18.659Z,16.55
2022-12-12T07:47:46.122Z,15.02
2022-12-12T07:50:13.177Z,16.70
2022-12-12T07:52:39.993Z,16.35
2022-12-12T07:55:07.018Z,14.52
2022-12-12T07:57:33.791Z,16.50
2022-12-12T08:00:00.617Z,15.80
2022-12-12T08:02:27.380Z,16.27
2022-12-12T08:04:54.205Z,17.17
2022-12-12T08:07:21.005Z,14.93
2022-12-12T08:09:47.721Z,14.13
2022-12-12T08:12:14.491Z,15.23
2022-12-12T08:14:41.311Z,18.90
2022-12-12T08:17:08.047Z,14.68
2022-12-12T08:19:34.822Z,16.17
2022-12-12T08:22:01.779Z,13.65
2022-12-12T08:24:29.987Z,13.73
2022-12-12T08:26:56.733Z,16.60
2022-12-12T08:29:23.480Z,14.32
2022-12-12T08:31:50.252Z,13.77
2022-12-12T08:34:17.094Z,13.63
2022-12-12T08:36:43.961Z,15.45
2022-12-12T08:39:12.442Z,14.48
2022-12-12T08:41:41.097Z,13.18
2022-12-12T08:44:08.862Z,13.32
2022-12-12T08:46:35.899Z,13.35
2022-12-12T08:49:02.734Z,15.80
2022-12-12T08:51:29.504Z,9.65
2022-12-12T08:53:56.600Z,11.70
2022-12-12T08:56:23.809Z,11.73
2022-12-12T08:58:50.625Z,14.55
2022-12-12T09:01:19.391Z,10.10
2022-12-12T09:03:46.281Z,13.43
2022-12-12T09:06:14.114Z,13.25
2022-12-12T09:08:41.314Z,10.98
2022-12-12T09:11:08.105Z,11.02
2022-12-12T09:13:35.356Z,10.20
2022-12-12T09:16:02.536Z,13.32
2022-12-12T09:18:29.506Z,11.05
2022-12-12T09:20:57.709Z,9.95
2022-12-12T09:23:27.422Z,11.25
2022-12-12T09:25:56.970Z,15.50
2022-12-12T09:28:24.836Z,12.80
2022-12-12T09:30:51.689Z,9.65
2022-12-12T09:33:19.110Z,11.95
2022-12-12T09:35:45.993Z,10.75
2022-12-12T09:38:14.901Z,13.35
2022-12-12T09:40:56.667Z,9.82
2022-12-12T09:43:29.709Z,8.20
2022-12-12T09:45:57.094Z,12.20
2022-12-12T09:48:31.002Z,11.50
2022-12-12T09:50:57.942Z,15.52
2022-12-12T09:53:24.667Z,11.55
2022-12-12T09:56:10.902Z,11.25
2022-12-12T09:59:06.826Z,10.85
2022-12-12T10:01:58.458Z,12.27
2022-12-12T10:05:01.606Z,11.00
2022-12-12T10:07:56.159Z,16.67
2022-12-12T10:10:56.206Z,10.30
2022-12-12T10:13:25.519Z,11.32
2022-12-12T10:16:03.049Z,11.23
2022-12-12T10:18:35.420Z,10.50
2022-12-12T10:21:04.589Z,9.32
2022-12-12T10:23:46.347Z,11.20
2022-12-12T10:26:23.679Z,10.25
2022-12-12T10:28:53.421Z,9.95
2022-12-12T10:31:55.304Z,12.48
2022-12-12T10:34:28.127Z,10.45
2022-12-12T10:37:17.355Z,10.38
2022-12-12T10:39:53.135Z,9.63
2022-12-12T10:42:36.564Z,9.73
2022-12-12T10:45:12.105Z,15.45
2022-12-12T10:47:39.055Z,7.75
2022-12-12T10:50:24.359Z,9.63
2022-12-12T10:52:51.286Z,10.40
2022-12-12T10:55:39.330Z,10.88
2022-12-12T10:58:06.473Z,11.90
2022-12-12T11:00:38.656Z,9.57
2022-12-12T11:03:28.191Z,10.02
2022-12-12T11:05:56.005Z,13.57
2022-12-12T11:08:29.939Z,14.95
2022-12-12T11:11:19.512Z,13.20
2022-12-12T11:13:57.612Z,15.55
2022-12-12T11:16:25.384Z,14.63
2022-12-12T11:19:01.337Z,14.25
2022-12-12T11:21:28.687Z,13.93
2022-12-12T11:23:56.641Z,14.93
2022-12-12T11:26:23.479Z,12.77
2022-12-12T11:29:01.217Z,14.23
2022-12-12T11:31:30.105Z,13.18
2022-12-12T11:33:59.039Z,16.02
2022-12-12T11:36:38.644Z,15.05
2022-12-12T11:39:25.950Z,15.68
2022-12-12T11:42:16.822Z,21.02
2022-12-12T11:44:45.735Z,14.00
2022-12-12T11:47:18.650Z,15.93
2022-12-12T11:49:46.891Z,13.25
2022-12-12T11:52:26.128Z,12.32
2022-12-12T11:54:53.754Z,14.15
2022-12-12T11:57:30.926Z,14.75
2022-12-12T12:00:09.369Z,16.58
2022-12-12T12:02:55.058Z,14.15
2022-12-12T12:05:27.895Z,17.80
2022-12-12T12:08:16.459Z,14.43
2022-12-12T12:10:58.789Z,15.82
2022-12-12T12:13:37.040Z,19.45
2022-12-12T12:16:15.746Z,17.65
2022-12-12T12:19:04.227Z,18.50
2022-12-12T12:21:43.517Z,16.45
2022-12-12T12:24:34.718Z,22.50
2022-12-12T12:27:22.551Z,17.83
2022-12-12T12:30:08.926Z,20.40
2022-12-12T12:33:00.401Z,19.50
2022-12-12T12:36:02.262Z,20.38
2022-12-12T12:38:55.606Z,17.85
2022-12-12T12:41:53.385Z,19.63
2022-12-12T12:44:22.940Z,25.80
2022-12-12T12:46:52.996Z,18.02
2022-12-12T12:49:39.710Z,21.55
2022-12-12T12:52:12.784Z,20.05
2022-12-12T12:54:40.760Z,23.67
2022-12-12T12:57:10.566Z,19.38
2022-12-12T12:59:41.986Z,17.42
2022-12-12T13:02:19.161Z,16.17
2022-12-12T13:05:13.695Z,18.58
2022-12-12T13:07:48.575Z,16.92
2022-12-12T13:10:29.838Z,17.02
2022-12-12T13:13:06.289Z,18.27
2022-12-12T13:15:44.324Z,15.85
2022-12-12T13:18:15.571Z,16.25
2022-12-12T13:20:44.456Z,19.92
2022-12-12T13:23:13.329Z,14.70
2022-12-12T13:25:49.772Z,15.40
2022-12-12T13:28:20.827Z,18.40
2022-12-12T13:30:57.225Z,14.95
2022-12-12T13:33:43.720Z,17.05
2022-12-12T13:36:18.336Z,17.60
2022-12-12T13:38:53.510Z,20.38
2022-12-12T13:41:20.404Z,21.83
2022-12-12T13:43:57.275Z,17.48
2022-12-12T13:46:32.926Z,19.27
2022-12-12T13:49:02.582Z,23.60
2022-12-12T13:51:32.491Z,22.65
2022-12-12T13:54:13.319Z,26.75
2022-12-12T13:56:52.567Z,26.58
2022-12-12T13:59:22.518Z,23.17
2022-12-12T14:01:59.765Z,22.40
2022-12-12T14:04:33.680Z,24.25
2022-12-12T14:07:06.400Z,23.15
2022-12-12T14:09:47.745Z,24.73
2022-12-12T14:12:38.264Z,25.75
2022-12-12T14:15:18.961Z,26.85
2022-12-12T14:17:59.445Z,25.92
2022-12-12T14:20:28.087Z,25.40
2022-12-12T14:23:13.825Z,24.52
2022-12-12T14:25:40.820Z,26.77
2022-12-12T14:28:32.674Z,32.30
2022-12-12T14:31:14.125Z,27.98
2022-12-12T14:33:52.710Z,28.35
2022-12-12T14:36:38.764Z,26.95
2022-12-12T14:39:33.145Z,26.23
2022-12-12T14:41:59.979Z,33.15
2022-12-12T14:44:37.297Z,37.60
2022-12-12T14:47:10.729Z,36.35
2022-12-12T14:49:37.702Z,32.50
2022-12-12T14:52:04.560Z,34.63
2022-12-12T14:54:31.361Z,33.70
2022-12-12T14:57:04.814Z,34.25
2022-12-12T14:59:37.024Z,35.00
2022-12-12T15:02:26.244Z,32.50
2022-12-12T15:05:04.131Z,32.47
2022-12-12T15:07:38.327Z,36.95
2022-12-12T15:10:26.489Z,42.00
2022-12-12T15:12:53.267Z,33.95
2022-12-12T15:15:24.278Z,40.13
2022-12-12T15:17:51.056Z,36.72
2022-12-12T15:20:22.980Z,41.78
2022-12-12T15:23:00.568Z,36.63
2022-12-12T15:25:46.746Z,38.47
2022-12-12T15:28:17.820Z,43.47
2022-12-12T15:30:44.591Z,35.40
2022-12-12T15:33:22.439Z,31.15
2022-12-12T15:36:01.103Z,37.03
2022-12-12T15:38:28.957Z,37.53
2022-12-12T15:40:57.866Z,32.85
2022-12-12T15:43:28.723Z,31.65
2022-12-12T15:46:00.182Z,32.88
2022-12-12T15:48:27.121Z,36.78
2022-12-12T15:50:58.058Z,34.45
2022-12-12T15:53:26.420Z,29.67
2022-12-12T15:56:16.092Z,38.90
2022-12-12T15:58:43.680Z,31.30
2022-12-12T16:01:20.313Z,29.35
2022-12-12T16:04:21.223Z,42.95
2022-12-12T16:06:48.353Z,32.47
2022-12-12T16:09:22.688Z,29.60
2022-12-12T16:11:52.762Z,33.40
2022-12-12T16:14:25.747Z,34.20
2022-12-12T16:16:55.024Z,34.63
2022-12-12T16:19:35.946Z,36.72
2022-12-12T16:22:26.688Z,32.03
2022-12-12T16:24:55.505Z,27.42
2022-12-12T16:27:22.271Z,35.33
2022-12-12T16:29:49.036Z,29.08
2022-12-12T16:32:17.554Z,37.15
2022-12-12T16:34:44.408Z,33.92
2022-12-12T16:37:15.298Z,33.42
2022-12-12T16:39:42.309Z,32.95
2022-12-12T16:42:13.929Z,30.10
2022-12-12T16:44:40.830Z,32.38
2022-12-12T16:47:19.023Z,28.20
2022-12-12T16:49:45.881Z,33.80
2022-12-12T16:52:13.918Z,31.45
2022-12-12T16:54:41.263Z,33.25
2022-12-12T16:57:08.118Z,31.73
2022-12-12T16:59:35.203Z,31.33
2022-12-12T17:02:01.981Z,30.10
2022-12-12T17:04:29.477Z,28.25
2022-12-12T17:06:57.468Z,29.30
2022-12-12T17:09:29.631Z,26.55
2022-12-12T17:11:57.312Z,30.58
2022-12-12T17:14:24.823Z,28.13
2022-12-12T17:16:53.534Z,26.33
2022-12-12T17:19:20.712Z,29.15
2022-12-12T17:21:47.823Z,26.45
2022-12-12T17:24:14.583Z,28.15
2022-12-12T17:26:41.711Z,27.27
2022-12-12T17:29:08.625Z,25.92
2022-12-12T17:31:35.500Z,26.83
2022-12-12T17:34:02.740Z,29.15
2022-12-12T17:36:29.583Z,29.27
2022-12-12T17:38:56.380Z,28.23
2022-12-12T17:41:23.328Z,30.83
2022-12-12T17:43:55.242Z,25.90
2022-12-12T17:46:22.517Z,28.45
2022-12-12T17:48:49.440Z,27.95
2022-12-12T17:51:18.079Z,25.33
2022-12-12T17:53:44.910Z,23.92
2022-12-12T17:56:16.171Z,25.80
2022-12-12T17:58:44.593Z,26.65
2022-12-12T18:01:12.809Z,29.95
2022-12-12T18:03:40.251Z,27.00
2022-12-12T18:06:10.448Z,30.83
2022-12-12T18:08:37.735Z,23.88
2022-12-12T18:11:09.223Z,26.40
2022-12-12T18:13:36.331Z,30.17
2022-12-12T18:16:03.268Z,27.35
2022-12-12T18:18:30.093Z,25.50
2022-12-12T18:20:56.848Z,23.48
2022-12-12T18:23:26.315Z,27.95
2022-12-12T18:25:53.005Z,24.50
2022-12-12T18:28:23.140Z,23.35
2022-12-12T18:30:50.289Z,28.88
2022-12-12T18:33:17.127Z,23.33
2022-12-12T18:35:44.029Z,22.10
2022-12-12T18:38:10.736Z,22.60
2022-12-12T18:40:39.218Z,20.77
2022-12-12T18:43:06.145Z,23.35
2022-12-12T18:45:36.619Z,21.20
2022-12-12T18:48:03.569Z,21.42
2022-12-12T18:50:30.377Z,21.95
2022-12-12T18:52:57.133Z,20.35
2022-12-12T18:55:26.209Z,21.98
2022-12-12T18:57:53.170Z,19.40
2022-12-12T19:00:20.441Z,22.08
2022-12-12T19:02:47.218Z,23.00
2022-12-12T19:05:14.765Z,21.48
2022-12-12T19:07:41.760Z,21.48
2022-12-12T19:10:08.773Z,25.05
2022-12-12T19:12:35.580Z,23.92
2022-12-12T19:15:18.174Z,23.15
2022-12-12T19:17:45.235Z,20.65
2022-12-12T19:20:13.007Z,21.50
2022-12-12T19:22:47.321Z,22.35
2022-12-12T19:27:42.242Z,23.80
2022-12-12T19:30:10.214Z,17.83
2022-12-12T19:32:37.049Z,18.80
2022-12-12T19:35:04.024Z,26.30
2022-12-12T19:37:30.839Z,24.50
2022-12-12T19:39:57.672Z,20.75
2022-12-12T19:42:24.442Z,22.48
2022-12-12T19:44:51.191Z,27.50
2022-12-12T19:47:18.970Z,19.02
2022-12-12T19:49:45.735Z,23.98
2022-12-12T19:52:14.473Z,20.67
2022-12-12T19:54:41.617Z,19.67
2022-12-12T19:57:08.335Z,20.48
2022-12-12T19:59:35.098Z,26.30
2022-12-12T20:02:02.643Z,21.45
2022-12-12T20:04:30.242Z,21.80
2022-12-12T20:06:57.247Z,17.00
2022-12-12T20:09:28.605Z,18.67
2022-12-12T20:11:56.054Z,18.45
2022-12-12T20:14:27.267Z,19.80
2022-12-12T20:16:54.921Z,20.23
2022-12-12T20:19:22.629Z,18.08
2022-12-12T20:22:05.616Z,18.98
2022-12-12T20:24:33.291Z,18.02
2022-12-12T20:27:00.538Z,18.02
2022-12-12T20:29:27.719Z,23.38
2022-12-12T20:31:54.500Z,19.25
2022-12-12T20:34:22.551Z,18.48
2022-12-12T20:36:50.432Z,20.13
2022-12-12T20:39:19.393Z,20.83
2022-12-12T20:41:46.555Z,19.67
2022-12-12T20:44:13.555Z,22.88
2022-12-12T20:46:41.820Z,20.20
2022-12-12T20:49:10.913Z,18.88
2022-12-12T20:54:25.284Z,21.38
2022-12-12T20:56:55.860Z,19.38
2022-12-12T20:59:22.701Z,21.88
2022-12-12T21:01:49.779Z,17.95
2022-12-12T21:04:16.705Z,21.00
2022-12-12T21:06:44.712Z,19.25
2022-12-12T21:09:13.041Z,22.20
2022-12-12T21:11:43.226Z,19.25
2022-12-12T21:14:10.157Z,27.58
2022-12-12T21:16:38.476Z,20.83
2022-12-12T21:19:08.497Z,19.02
2022-12-12T21:21:35.382Z,18.67
2022-12-12T21:24:02.193Z,21.55
2022-12-12T21:26:29.761Z,25.02
2022-12-12T21:28:57.313Z,23.08
2022-12-12T21:31:26.062Z,18.60
2022-12-12T21:33:52.926Z,19.80
2022-12-12T21:36:20.882Z,20.50
2022-12-12T21:38:48.144Z,16.88
2022-12-12T21:41:16.731Z,18.85
2022-12-12T21:43:44.429Z,19.88
2022-12-12T21:46:15.437Z,19.33
2022-12-12T21:48:42.249Z,21.38
2022-12-12T21:51:10.935Z,18.15
2022-12-12T21:53:38.720Z,19.05
2022-12-12T21:56:10.439Z,18.48
2022-12-12T21:58:38.142Z,22.70
2022-12-12T22:01:09.675Z,19.58
2022-12-12T22:03:36.782Z,18.55
2022-12-12T22:06:27.389Z,21.10
2022-12-12T22:08:55.342Z,17.98
2022-12-12T22:11:23.787Z,23.13
2022-12-12T22:14:07.797Z,22.73
2022-12-12T22:16:34.733Z,21.33
2022-12-12T22:19:05.752Z,21.35
2022-12-12T22:21:33.134Z,23.00
2022-12-12T22:24:00.104Z,18.05
2022-12-12T22:26:31.120Z,19.33
2022-12-12T22:28:59.649Z,22.40
2022-12-12T22:31:28.217Z,22.42
2022-12-12T22:34:19.409Z,24.13
2022-12-12T22:36:46.288Z,19.40
2022-12-12T22:39:19.992Z,24.30
2022-12-12T22:41:46.936Z,19.02
2022-12-12T22:44:15.838Z,23.67
2022-12-12T22:46:46.340Z,20.92
2022-12-12T22:49:14.673Z,20.13
2022-12-12T22:51:41.518Z,19.92
2022-12-12T22:54:08.322Z,25.20
2022-12-12T22:56:36.402Z,20.48
2022-12-12T22:59:03.851Z,23.10
2022-12-12T23:01:30.929Z,23.83
2022-12-12T23:03:57.908Z,22.23
2022-12-12T23:06:32.406Z,24.30
2022-12-12T23:09:03.038Z,24.70
2022-12-12T23:11:30.690Z,23.13
2022-12-12T23:14:04.878Z,25.58
2022-12-12T23:18:59.160Z,23.80
2022-12-12T23:21:26.035Z,24.50
2022-12-12T23:23:52.878Z,25.67
2022-12-12T23:26:21.203Z,24.90
2022-12-12T23:28:48.247Z,27.42
2022-12-12T23:31:23.075Z,22.25
2022-12-12T23:33:53.006Z,25.65
2022-12-12T23:36:20.444Z,27.05
2022-12-12T23:38:47.196Z,30.67
2022-12-12T23:41:14.991Z,23.88
2022-12-12T23:43:42.072Z,29.45
2022-12-12T23:46:28.114Z,23.65
2022-12-12T23:48:58.376Z,25.90
2022-12-12T23:51:25.558Z,24.52
2022-12-12T23:53:52.381Z,24.35
2022-12-12T23:56:19.103Z,24.98
2022-12-12T23:58:45.863Z,21.83
